sensor_id;sensor_type;location;lat;lon;timestamp;P1;P2;P0
77892;PMS5003;67087;50.094;14.338;2023-04-15T00:00:12;6;6;
77892;PMS5003;67087;50.094;14.338;2023-04-15T00:02:37;5;5;
77892;PMS5003;67087;50.094;14.338;2023-04-15T00:05:02;5;4;
77892;PMS5003;67087;50.094;14.338;2023-04-15T00:07:27;4;4;
77892;PMS5003;67087;50.094;14.338;2023-04-15T00:09:53;5;5;
77892;PMS5003;67087;50.094;14.338;2023-04-15T00:12:18;6;6;
77892;PMS5003;67087;50.094;14.338;2023-04-15T00:14:43;5;5;
77892;PMS5003;67087;50.094;14.338;2023-04-15T00:17:08;5;5;
77892;PMS5003;67087;50.094;14.338;2023-04-15T00:19:33;5;5;
77892;PMS5003;67087;50.094;14.338;2023-04-15T00:21:58;6;6;
77892;PMS5003;67087;50.094;14.338;2023-04-15T00:24:23;4;4;
77892;PMS5003;67087;50.094;14.338;2023-04-15T00:26:49;5;4;
77892;PMS5003;67087;50.094;14.338;2023-04-15T00:29:14;5;4;
77892;PMS5003;67087;50.094;14.338;2023-04-15T00:31:39;7;6;
77892;PMS5003;67087;50.094;14.338;2023-04-15T00:34:04;7;6;
77892;PMS5003;67087;50.094;14.338;2023-04-15T00:36:29;4;4;
77892;PMS5003;67087;50.094;14.338;2023-04-15T00:38:54;5;4;
77892;PMS5003;67087;50.094;14.338;2023-04-15T00:41:19;3;3;
77892;PMS5003;67087;50.094;14.338;2023-04-15T00:43:44;5;4;
77892;PMS5003;67087;50.094;14.338;2023-04-15T00:46:10;6;6;
77892;PMS5003;67087;50.094;14.338;2023-04-15T00:48:35;4;4;
77892;PMS5003;67087;50.094;14.338;2023-04-15T00:51:00;4;4;
77892;PMS5003;67087;50.094;14.338;2023-04-15T00:53:25;2;2;
77892;PMS5003;67087;50.094;14.338;2023-04-15T00:55:50;7;6;
77892;PMS5003;67087;50.094;14.338;2023-04-15T00:58:15;5;4;
77892;PMS5003;67087;50.094;14.338;2023-04-15T01:00:40;4;4;
77892;PMS5003;67087;50.094;14.338;2023-04-15T01:03:05;3;3;
77892;PMS5003;67087;50.094;14.338;2023-04-15T01:05:30;4;4;
77892;PMS5003;67087;50.094;14.338;2023-04-15T01:07:55;5;5;
77892;PMS5003;67087;50.094;14.338;2023-04-15T01:10:21;4;4;
77892;PMS5003;67087;50.094;14.338;2023-04-15T01:12:46;5;4;
77892;PMS5003;67087;50.094;14.338;2023-04-15T01:15:11;5;4;
77892;PMS5003;67087;50.094;14.338;2023-04-15T01:17:36;5;4;
77892;PMS5003;67087;50.094;14.338;2023-04-15T01:20:01;3;3;
77892;PMS5003;67087;50.094;14.338;2023-04-15T01:22:26;2;2;
77892;PMS5003;67087;50.094;14.338;2023-04-15T01:24:54;3;3;
77892;PMS5003;67087;50.094;14.338;2023-04-15T01:27:16;4;4;
77892;PMS5003;67087;50.094;14.338;2023-04-15T01:29:41;7;4;
77892;PMS5003;67087;50.094;14.338;2023-04-15T01:32:07;4;4;
77892;PMS5003;67087;50.094;14.338;2023-04-15T01:34:32;3;3;
77892;PMS5003;67087;50.094;14.338;2023-04-15T01:36:57;4;4;
77892;PMS5003;67087;50.094;14.338;2023-04-15T01:39:22;3;3;
77892;PMS5003;67087;50.094;14.338;2023-04-15T01:41:47;2;2;
77892;PMS5003;67087;50.094;14.338;2023-04-15T01:44:12;3;3;
77892;PMS5003;67087;50.094;14.338;2023-04-15T01:46:38;4;4;
77892;PMS5003;67087;50.094;14.338;2023-04-15T01:49:02;3;3;
77892;PMS5003;67087;50.094;14.338;2023-04-15T01:51:28;3;3;
77892;PMS5003;67087;50.094;14.338;2023-04-15T01:53:53;3;3;
77892;PMS5003;67087;50.094;14.338;2023-04-15T01:56:18;4;4;
77892;PMS5003;67087;50.094;14.338;2023-04-15T01:58:43;4;3;
77892;PMS5003;67087;50.094;14.338;2023-04-15T02:01:08;4;4;
77892;PMS5003;67087;50.094;14.338;2023-04-15T02:03:33;4;4;
77892;PMS5003;67087;50.094;14.338;2023-04-15T02:05:58;3;3;
77892;PMS5003;67087;50.094;14.338;2023-04-15T02:08:23;3;3;
77892;PMS5003;67087;50.094;14.338;2023-04-15T02:10:49;3;3;
77892;PMS5003;67087;50.094;14.338;2023-04-15T02:13:14;3;3;
77892;PMS5003;67087;50.094;14.338;2023-04-15T02:15:39;4;4;
77892;PMS5003;67087;50.094;14.338;2023-04-15T02:18:04;2;2;
77892;PMS5003;67087;50.094;14.338;2023-04-15T02:20:29;1;1;
77892;PMS5003;67087;50.094;14.338;2023-04-15T02:22:54;4;4;
77892;PMS5003;67087;50.094;14.338;2023-04-15T02:25:19;2;2;
77892;PMS5003;67087;50.094;14.338;2023-04-15T02:27:44;3;3;
77892;PMS5003;67087;50.094;14.338;2023-04-15T02:30:10;4;3;
77892;PMS5003;67087;50.094;14.338;2023-04-15T02:32:35;3;2;
77892;PMS5003;67087;50.094;14.338;2023-04-15T02:35:01;4;3;
77892;PMS5003;67087;50.094;14.338;2023-04-15T02:37:25;4;3;
77892;PMS5003;67087;50.094;14.338;2023-04-15T02:39:50;3;2;
77892;PMS5003;67087;50.094;14.338;2023-04-15T02:42:15;3;3;
77892;PMS5003;67087;50.094;14.338;2023-04-15T02:44:40;2;1;
77892;PMS5003;67087;50.094;14.338;2023-04-15T02:47:05;3;3;
77892;PMS5003;67087;50.094;14.338;2023-04-15T02:49:30;4;3;
77892;PMS5003;67087;50.094;14.338;2023-04-15T02:51:56;3;3;
77892;PMS5003;67087;50.094;14.338;2023-04-15T02:54:21;3;3;
77892;PMS5003;67087;50.094;14.338;2023-04-15T02:56:46;3;3;
77892;PMS5003;67087;50.094;14.338;2023-04-15T02:59:11;3;3;
77892;PMS5003;67087;50.094;14.338;2023-04-15T03:01:36;3;2;
77892;PMS5003;67087;50.094;14.338;2023-04-15T03:04:01;5;4;
77892;PMS5003;67087;50.094;14.338;2023-04-15T03:06:26;3;3;
77892;PMS5003;67087;50.094;14.338;2023-04-15T03:08:51;3;3;
77892;PMS5003;67087;50.094;14.338;2023-04-15T03:11:18;3;3;
77892;PMS5003;67087;50.094;14.338;2023-04-15T03:13:42;2;2;
77892;PMS5003;67087;50.094;14.338;2023-04-15T03:16:07;2;2;
77892;PMS5003;67087;50.094;14.338;2023-04-15T03:18:32;3;3;
77892;PMS5003;67087;50.094;14.338;2023-04-15T03:20:57;2;2;
77892;PMS5003;67087;50.094;14.338;2023-04-15T03:23:22;4;4;
77892;PMS5003;67087;50.094;14.338;2023-04-15T03:25:47;2;2;
77892;PMS5003;67087;50.094;14.338;2023-04-15T03:28:13;4;3;
77892;PMS5003;67087;50.094;14.338;2023-04-15T03:30:38;2;2;
77892;PMS5003;67087;50.094;14.338;2023-04-15T03:33:03;2;2;
77892;PMS5003;67087;50.094;14.338;2023-04-15T03:35:28;4;3;
77892;PMS5003;67087;50.094;14.338;2023-04-15T03:37:53;2;2;
77892;PMS5003;67087;50.094;14.338;2023-04-15T03:40:19;5;3;
77892;PMS5003;67087;50.094;14.338;2023-04-15T03:42:43;3;3;
77892;PMS5003;67087;50.094;14.338;2023-04-15T03:45:09;3;3;
77892;PMS5003;67087;50.094;14.338;2023-04-15T03:47:34;3;3;
77892;PMS5003;67087;50.094;14.338;2023-04-15T03:49:59;2;2;
77892;PMS5003;67087;50.094;14.338;2023-04-15T03:52:24;3;3;
77892;PMS5003;67087;50.094;14.338;2023-04-15T03:54:49;2;2;
77892;PMS5003;67087;50.094;14.338;2023-04-15T03:57:14;2;2;
77892;PMS5003;67087;50.094;14.338;2023-04-15T03:59:39;3;3;
77892;PMS5003;67087;50.094;14.338;2023-04-15T04:02:04;2;2;
77892;PMS5003;67087;50.094;14.338;2023-04-15T04:04:30;2;2;
77892;PMS5003;67087;50.094;14.338;2023-04-15T04:06:55;2;1;
77892;PMS5003;67087;50.094;14.338;2023-04-15T04:09:20;2;2;
77892;PMS5003;67087;50.094;14.338;2023-04-15T04:11:45;1;1;
77892;PMS5003;67087;50.094;14.338;2023-04-15T04:14:10;2;2;
77892;PMS5003;67087;50.094;14.338;2023-04-15T04:16:35;3;3;
77892;PMS5003;67087;50.094;14.338;2023-04-15T04:19:00;1;0;
77892;PMS5003;67087;50.094;14.338;2023-04-15T04:21:25;1;1;
77892;PMS5003;67087;50.094;14.338;2023-04-15T04:23:50;1;1;
77892;PMS5003;67087;50.094;14.338;2023-04-15T04:26:16;2;2;
77892;PMS5003;67087;50.094;14.338;2023-04-15T04:28:41;1;0;
77892;PMS5003;67087;50.094;14.338;2023-04-15T04:31:06;2;2;
77892;PMS5003;67087;50.094;14.338;2023-04-15T04:33:31;2;2;
77892;PMS5003;67087;50.094;14.338;2023-04-15T04:35:56;3;3;
77892;PMS5003;67087;50.094;14.338;2023-04-15T04:38:21;0;0;
77892;PMS5003;67087;50.094;14.338;2023-04-15T04:40:46;2;2;
77892;PMS5003;67087;50.094;14.338;2023-04-15T04:43:11;2;2;
77892;PMS5003;67087;50.094;14.338;2023-04-15T04:45:37;0;0;
77892;PMS5003;67087;50.094;14.338;2023-04-15T04:48:02;3;3;
77892;PMS5003;67087;50.094;14.338;2023-04-15T04:50:27;1;1;
77892;PMS5003;67087;50.094;14.338;2023-04-15T04:52:52;2;2;
77892;PMS5003;67087;50.094;14.338;2023-04-15T04:55:17;2;2;
77892;PMS5003;67087;50.094;14.338;2023-04-15T04:57:42;2;2;
77892;PMS5003;67087;50.094;14.338;2023-04-15T05:00:08;2;2;
77892;PMS5003;67087;50.094;14.338;2023-04-15T05:02:32;3;3;
77892;PMS5003;67087;50.094;14.338;2023-04-15T05:04:58;1;1;
77892;PMS5003;67087;50.094;14.338;2023-04-15T05:07:23;2;2;
77892;PMS5003;67087;50.094;14.338;2023-04-15T05:09:48;2;2;
77892;PMS5003;67087;50.094;14.338;2023-04-15T05:12:13;2;2;
77892;PMS5003;67087;50.094;14.338;2023-04-15T05:14:38;2;2;
77892;PMS5003;67087;50.094;14.338;2023-04-15T05:17:03;2;2;
77892;PMS5003;67087;50.094;14.338;2023-04-15T05:19:29;3;3;
77892;PMS5003;67087;50.094;14.338;2023-04-15T05:21:53;4;3;
77892;PMS5003;67087;50.094;14.338;2023-04-15T05:24:19;2;2;
77892;PMS5003;67087;50.094;14.338;2023-04-15T05:26:44;1;1;
77892;PMS5003;67087;50.094;14.338;2023-04-15T05:29:09;2;2;
77892;PMS5003;67087;50.094;14.338;2023-04-15T05:31:34;1;1;
77892;PMS5003;67087;50.094;14.338;2023-04-15T05:33:59;2;2;
77892;PMS5003;67087;50.094;14.338;2023-04-15T05:36:24;2;2;
77892;PMS5003;67087;50.094;14.338;2023-04-15T05:38:49;3;2;
77892;PMS5003;67087;50.094;14.338;2023-04-15T05:41:14;3;2;
77892;PMS5003;67087;50.094;14.338;2023-04-15T05:43:39;1;1;
77892;PMS5003;67087;50.094;14.338;2023-04-15T05:46:05;2;2;
77892;PMS5003;67087;50.094;14.338;2023-04-15T05:48:30;1;1;
77892;PMS5003;67087;50.094;14.338;2023-04-15T05:50:55;0;0;
77892;PMS5003;67087;50.094;14.338;2023-04-15T05:53:20;3;3;
77892;PMS5003;67087;50.094;14.338;2023-04-15T05:55:46;3;2;
77892;PMS5003;67087;50.094;14.338;2023-04-15T05:58:11;1;1;
77892;PMS5003;67087;50.094;14.338;2023-04-15T06:00:36;1;1;
77892;PMS5003;67087;50.094;14.338;2023-04-15T06:03:01;2;2;
77892;PMS5003;67087;50.094;14.338;2023-04-15T06:05:26;1;1;
77892;PMS5003;67087;50.094;14.338;2023-04-15T06:07:51;2;2;
77892;PMS5003;67087;50.094;14.338;2023-04-15T06:10:17;2;2;
77892;PMS5003;67087;50.094;14.338;2023-04-15T06:12:41;3;1;
77892;PMS5003;67087;50.094;14.338;2023-04-15T06:15:07;3;3;
77892;PMS5003;67087;50.094;14.338;2023-04-15T06:17:32;3;3;
77892;PMS5003;67087;50.094;14.338;2023-04-15T06:19:57;3;3;
77892;PMS5003;67087;50.094;14.338;2023-04-15T06:22:22;3;3;
77892;PMS5003;67087;50.094;14.338;2023-04-15T06:24:47;2;2;
77892;PMS5003;67087;50.094;14.338;2023-04-15T06:27:12;4;2;
77892;PMS5003;67087;50.094;14.338;2023-04-15T06:29:38;4;3;
77892;PMS5003;67087;50.094;14.338;2023-04-15T06:32:03;3;3;
77892;PMS5003;67087;50.094;14.338;2023-04-15T06:34:28;6;5;
77892;PMS5003;67087;50.094;14.338;2023-04-15T06:36:53;3;3;
77892;PMS5003;67087;50.094;14.338;2023-04-15T06:39:18;2;2;
77892;PMS5003;67087;50.094;14.338;2023-04-15T06:41:43;4;4;
77892;PMS5003;67087;50.094;14.338;2023-04-15T06:44:08;4;4;
77892;PMS5003;67087;50.094;14.338;2023-04-15T06:46:33;2;2;
77892;PMS5003;67087;50.094;14.338;2023-04-15T06:48:58;5;3;
77892;PMS5003;67087;50.094;14.338;2023-04-15T06:51:24;3;2;
77892;PMS5003;67087;50.094;14.338;2023-04-15T06:53:49;4;3;
77892;PMS5003;67087;50.094;14.338;2023-04-15T06:56:14;5;5;
77892;PMS5003;67087;50.094;14.338;2023-04-15T06:58:39;1;1;
77892;PMS5003;67087;50.094;14.338;2023-04-15T07:01:05;5;4;
77892;PMS5003;67087;50.094;14.338;2023-04-15T07:03:30;3;2;
77892;PMS5003;67087;50.094;14.338;2023-04-15T07:05:55;3;3;
77892;PMS5003;67087;50.094;14.338;2023-04-15T07:08:20;6;5;
77892;PMS5003;67087;50.094;14.338;2023-04-15T07:10:45;2;2;
77892;PMS5003;67087;50.094;14.338;2023-04-15T07:13:11;4;3;
77892;PMS5003;67087;50.094;14.338;2023-04-15T07:15:36;2;2;
77892;PMS5003;67087;50.094;14.338;2023-04-15T07:18:01;8;6;
77892;PMS5003;67087;50.094;14.338;2023-04-15T07:20:26;3;3;
77892;PMS5003;67087;50.094;14.338;2023-04-15T07:22:52;3;2;
77892;PMS5003;67087;50.094;14.338;2023-04-15T07:25:17;5;4;
77892;PMS5003;67087;50.094;14.338;2023-04-15T07:27:42;6;6;
77892;PMS5003;67087;50.094;14.338;2023-04-15T07:30:07;2;2;
77892;PMS5003;67087;50.094;14.338;2023-04-15T07:32:32;3;2;
77892;PMS5003;67087;50.094;14.338;2023-04-15T07:34:57;3;3;
77892;PMS5003;67087;50.094;14.338;2023-04-15T07:37:22;4;3;
77892;PMS5003;67087;50.094;14.338;2023-04-15T07:39:47;4;4;
77892;PMS5003;67087;50.094;14.338;2023-04-15T07:42:12;3;2;
77892;PMS5003;67087;50.094;14.338;2023-04-15T07:44:38;2;2;
77892;PMS5003;67087;50.094;14.338;2023-04-15T07:47:03;4;4;
77892;PMS5003;67087;50.094;14.338;2023-04-15T07:49:28;2;2;
77892;PMS5003;67087;50.094;14.338;2023-04-15T07:51:53;3;3;
77892;PMS5003;67087;50.094;14.338;2023-04-15T07:54:18;3;3;
77892;PMS5003;67087;50.094;14.338;2023-04-15T07:56:43;3;2;
77892;PMS5003;67087;50.094;14.338;2023-04-15T07:59:08;1;1;
77892;PMS5003;67087;50.094;14.338;2023-04-15T08:01:33;2;2;
77892;PMS5003;67087;50.094;14.338;2023-04-15T08:03:58;2;2;
77892;PMS5003;67087;50.094;14.338;2023-04-15T08:06:24;2;1;
77892;PMS5003;67087;50.094;14.338;2023-04-15T08:08:49;2;2;
77892;PMS5003;67087;50.094;14.338;2023-04-15T08:11:14;4;3;
77892;PMS5003;67087;50.094;14.338;2023-04-15T08:13:39;2;2;
77892;PMS5003;67087;50.094;14.338;2023-04-15T08:18:29;1;1;
77892;PMS5003;67087;50.094;14.338;2023-04-15T08:20:54;2;2;
77892;PMS5003;67087;50.094;14.338;2023-04-15T08:23:19;1;1;
77892;PMS5003;67087;50.094;14.338;2023-04-15T08:25:45;1;1;
77892;PMS5003;67087;50.094;14.338;2023-04-15T08:28:10;4;2;
77892;PMS5003;67087;50.094;14.338;2023-04-15T08:30:35;2;2;
77892;PMS5003;67087;50.094;14.338;2023-04-15T08:33:00;2;2;
77892;PMS5003;67087;50.094;14.338;2023-04-15T08:35:25;3;2;
77892;PMS5003;67087;50.094;14.338;2023-04-15T08:37:50;3;3;
77892;PMS5003;67087;50.094;14.338;2023-04-15T08:40:15;1;1;
77892;PMS5003;67087;50.094;14.338;2023-04-15T08:42:41;2;2;
77892;PMS5003;67087;50.094;14.338;2023-04-15T08:45:06;4;4;
77892;PMS5003;67087;50.094;14.338;2023-04-15T08:47:31;4;4;
77892;PMS5003;67087;50.094;14.338;2023-04-15T08:49:56;4;2;
77892;PMS5003;67087;50.094;14.338;2023-04-15T08:52:21;1;1;
77892;PMS5003;67087;50.094;14.338;2023-04-15T08:54:46;3;3;
77892;PMS5003;67087;50.094;14.338;2023-04-15T08:57:11;2;2;
77892;PMS5003;67087;50.094;14.338;2023-04-15T08:59:37;1;1;
77892;PMS5003;67087;50.094;14.338;2023-04-15T09:02:02;2;2;
77892;PMS5003;67087;50.094;14.338;2023-04-15T09:04:27;1;1;
77892;PMS5003;67087;50.094;14.338;2023-04-15T09:06:52;1;1;
77892;PMS5003;67087;50.094;14.338;2023-04-15T09:09:17;2;2;
77892;PMS5003;67087;50.094;14.338;2023-04-15T09:11:42;2;2;
77892;PMS5003;67087;50.094;14.338;2023-04-15T09:14:07;1;1;
77892;PMS5003;67087;50.094;14.338;2023-04-15T09:18:58;1;1;
77892;PMS5003;67087;50.094;14.338;2023-04-15T09:21:23;2;2;
77892;PMS5003;67087;50.094;14.338;2023-04-15T09:23:53;1;1;
77892;PMS5003;67087;50.094;14.338;2023-04-15T09:26:13;4;4;
77892;PMS5003;67087;50.094;14.338;2023-04-15T09:28:41;2;2;
77892;PMS5003;67087;50.094;14.338;2023-04-15T09:31:03;2;1;
77892;PMS5003;67087;50.094;14.338;2023-04-15T09:33:28;0;0;
77892;PMS5003;67087;50.094;14.338;2023-04-15T09:35:57;3;3;
77892;PMS5003;67087;50.094;14.338;2023-04-15T09:38:18;0;0;
77892;PMS5003;67087;50.094;14.338;2023-04-15T09:40:43;2;1;
77892;PMS5003;67087;50.094;14.338;2023-04-15T09:43:09;2;2;
77892;PMS5003;67087;50.094;14.338;2023-04-15T09:45:34;2;1;
77892;PMS5003;67087;50.094;14.338;2023-04-15T09:47:59;3;2;
77892;PMS5003;67087;50.094;14.338;2023-04-15T09:50:26;1;1;
77892;PMS5003;67087;50.094;14.338;2023-04-15T09:52:49;2;2;
77892;PMS5003;67087;50.094;14.338;2023-04-15T09:55:16;2;2;
77892;PMS5003;67087;50.094;14.338;2023-04-15T09:57:39;2;2;
77892;PMS5003;67087;50.094;14.338;2023-04-15T10:00:05;4;4;
77892;PMS5003;67087;50.094;14.338;2023-04-15T10:02:30;5;5;
77892;PMS5003;67087;50.094;14.338;2023-04-15T10:04:55;4;4;
77892;PMS5003;67087;50.094;14.338;2023-04-15T10:07:20;4;4;
77892;PMS5003;67087;50.094;14.338;2023-04-15T10:09:45;4;3;
77892;PMS5003;67087;50.094;14.338;2023-04-15T10:12:10;3;3;
77892;PMS5003;67087;50.094;14.338;2023-04-15T10:14:35;3;3;
77892;PMS5003;67087;50.094;14.338;2023-04-15T10:17:01;3;2;
77892;PMS5003;67087;50.094;14.338;2023-04-15T10:19:25;3;3;
77892;PMS5003;67087;50.094;14.338;2023-04-15T10:21:50;4;4;
77892;PMS5003;67087;50.094;14.338;2023-04-15T10:24:16;3;3;
77892;PMS5003;67087;50.094;14.338;2023-04-15T10:26:41;2;2;
77892;PMS5003;67087;50.094;14.338;2023-04-15T10:29:06;3;3;
77892;PMS5003;67087;50.094;14.338;2023-04-15T10:31:31;3;3;
77892;PMS5003;67087;50.094;14.338;2023-04-15T10:33:56;3;3;
77892;PMS5003;67087;50.094;14.338;2023-04-15T10:36:21;4;3;
77892;PMS5003;67087;50.094;14.338;2023-04-15T10:38:46;4;4;
77892;PMS5003;67087;50.094;14.338;2023-04-15T10:41:12;3;3;
77892;PMS5003;67087;50.094;14.338;2023-04-15T10:43:37;2;2;
77892;PMS5003;67087;50.094;14.338;2023-04-15T10:46:03;3;3;
77892;PMS5003;67087;50.094;14.338;2023-04-15T10:48:27;5;3;
77892;PMS5003;67087;50.094;14.338;2023-04-15T10:50:55;4;3;
77892;PMS5003;67087;50.094;14.338;2023-04-15T10:53:21;3;2;
77892;PMS5003;67087;50.094;14.338;2023-04-15T10:55:42;3;3;
77892;PMS5003;67087;50.094;14.338;2023-04-15T10:58:07;4;3;
77892;PMS5003;67087;50.094;14.338;2023-04-15T11:00:32;3;3;
77892;PMS5003;67087;50.094;14.338;2023-04-15T11:02:58;2;2;
77892;PMS5003;67087;50.094;14.338;2023-04-15T11:05:47;3;3;
77892;PMS5003;67087;50.094;14.338;2023-04-15T11:07:49;3;3;
77892;PMS5003;67087;50.094;14.338;2023-04-15T11:12:38;6;6;
77892;PMS5003;67087;50.094;14.338;2023-04-15T11:17:28;4;4;
77892;PMS5003;67087;50.094;14.338;2023-04-15T11:19:53;2;2;
77892;PMS5003;67087;50.094;14.338;2023-04-15T11:22:18;4;3;
77892;PMS5003;67087;50.094;14.338;2023-04-15T11:24:46;4;4;
77892;PMS5003;67087;50.094;14.338;2023-04-15T11:27:08;3;3;
77892;PMS5003;67087;50.094;14.338;2023-04-15T11:29:33;3;3;
77892;PMS5003;67087;50.094;14.338;2023-04-15T11:32:03;3;3;
77892;PMS5003;67087;50.094;14.338;2023-04-15T11:34:24;3;3;
77892;PMS5003;67087;50.094;14.338;2023-04-15T11:36:49;3;3;
77892;PMS5003;67087;50.094;14.338;2023-04-15T11:39:14;6;5;
77892;PMS5003;67087;50.094;14.338;2023-04-15T11:41:40;4;3;
77892;PMS5003;67087;50.094;14.338;2023-04-15T11:44:14;3;3;
77892;PMS5003;67087;50.094;14.338;2023-04-15T11:46:29;4;3;
77892;PMS5003;67087;50.094;14.338;2023-04-15T11:48:54;3;3;
77892;PMS5003;67087;50.094;14.338;2023-04-15T11:51:19;5;5;
77892;PMS5003;67087;50.094;14.338;2023-04-15T11:53:45;4;4;
77892;PMS5003;67087;50.094;14.338;2023-04-15T11:56:10;4;4;
77892;PMS5003;67087;50.094;14.338;2023-04-15T11:58:35;4;3;
77892;PMS5003;67087;50.094;14.338;2023-04-15T12:01:00;3;3;
77892;PMS5003;67087;50.094;14.338;2023-04-15T12:03:25;4;4;
77892;PMS5003;67087;50.094;14.338;2023-04-15T12:08:15;2;2;
77892;PMS5003;67087;50.094;14.338;2023-04-15T12:10:40;3;2;
77892;PMS5003;67087;50.094;14.338;2023-04-15T12:13:05;2;2;
77892;PMS5003;67087;50.094;14.338;2023-04-15T12:15:30;3;2;
77892;PMS5003;67087;50.094;14.338;2023-04-15T12:17:55;4;3;
77892;PMS5003;67087;50.094;14.338;2023-04-15T12:20:23;4;3;
77892;PMS5003;67087;50.094;14.338;2023-04-15T12:22:45;4;3;
77892;PMS5003;67087;50.094;14.338;2023-04-15T12:25:10;4;4;
77892;PMS5003;67087;50.094;14.338;2023-04-15T12:27:36;3;2;
77892;PMS5003;67087;50.094;14.338;2023-04-15T12:30:03;6;6;
77892;PMS5003;67087;50.094;14.338;2023-04-15T12:32:26;5;4;
77892;PMS5003;67087;50.094;14.338;2023-04-15T12:34:51;4;4;
77892;PMS5003;67087;50.094;14.338;2023-04-15T12:37:16;3;3;
77892;PMS5003;67087;50.094;14.338;2023-04-15T12:39:42;5;4;
77892;PMS5003;67087;50.094;14.338;2023-04-15T12:42:07;3;3;
77892;PMS5003;67087;50.094;14.338;2023-04-15T12:44:31;3;3;
77892;PMS5003;67087;50.094;14.338;2023-04-15T12:46:56;3;3;
77892;PMS5003;67087;50.094;14.338;2023-04-15T12:49:22;2;2;
77892;PMS5003;67087;50.094;14.338;2023-04-15T12:51:47;3;3;
77892;PMS5003;67087;50.094;14.338;2023-04-15T12:54:12;2;2;
77892;PMS5003;67087;50.094;14.338;2023-04-15T12:56:37;2;2;
77892;PMS5003;67087;50.094;14.338;2023-04-15T12:59:02;4;3;
77892;PMS5003;67087;50.094;14.338;2023-04-15T13:01:27;2;2;
77892;PMS5003;67087;50.094;14.338;2023-04-15T13:03:52;2;2;
77892;PMS5003;67087;50.094;14.338;2023-04-15T13:06:17;3;3;
77892;PMS5003;67087;50.094;14.338;2023-04-15T13:08:42;2;2;
77892;PMS5003;67087;50.094;14.338;2023-04-15T13:11:07;5;4;
77892;PMS5003;67087;50.094;14.338;2023-04-15T13:13:33;3;3;
77892;PMS5003;67087;50.094;14.338;2023-04-15T13:15:58;3;3;
77892;PMS5003;67087;50.094;14.338;2023-04-15T13:18:23;2;1;
77892;PMS5003;67087;50.094;14.338;2023-04-15T13:20:48;3;3;
77892;PMS5003;67087;50.094;14.338;2023-04-15T13:23:13;3;3;
77892;PMS5003;67087;50.094;14.338;2023-04-15T13:25:38;3;2;
77892;PMS5003;67087;50.094;14.338;2023-04-15T13:28:03;3;3;
77892;PMS5003;67087;50.094;14.338;2023-04-15T13:30:28;1;1;
77892;PMS5003;67087;50.094;14.338;2023-04-15T13:32:53;3;3;
77892;PMS5003;67087;50.094;14.338;2023-04-15T13:35:18;3;3;
77892;PMS5003;67087;50.094;14.338;2023-04-15T13:37:43;3;3;
77892;PMS5003;67087;50.094;14.338;2023-04-15T13:40:09;1;1;
77892;PMS5003;67087;50.094;14.338;2023-04-15T13:42:34;3;2;
77892;PMS5003;67087;50.094;14.338;2023-04-15T13:44:59;1;1;
77892;PMS5003;67087;50.094;14.338;2023-04-15T13:47:24;4;4;
77892;PMS5003;67087;50.094;14.338;2023-04-15T13:49:49;2;2;
77892;PMS5003;67087;50.094;14.338;2023-04-15T13:52:14;1;1;
77892;PMS5003;67087;50.094;14.338;2023-04-15T13:54:39;2;1;
77892;PMS5003;67087;50.094;14.338;2023-04-15T13:57:04;2;1;
77892;PMS5003;67087;50.094;14.338;2023-04-15T13:59:30;4;4;
77892;PMS5003;67087;50.094;14.338;2023-04-15T14:01:54;3;3;
77892;PMS5003;67087;50.094;14.338;2023-04-15T14:04:19;1;1;
77892;PMS5003;67087;50.094;14.338;2023-04-15T14:06:45;3;3;
77892;PMS5003;67087;50.094;14.338;2023-04-15T14:09:10;2;2;
77892;PMS5003;67087;50.094;14.338;2023-04-15T14:11:36;4;4;
77892;PMS5003;67087;50.094;14.338;2023-04-15T14:14:00;2;2;
77892;PMS5003;67087;50.094;14.338;2023-04-15T14:16:25;2;2;
77892;PMS5003;67087;50.094;14.338;2023-04-15T14:18:50;3;2;
77892;PMS5003;67087;50.094;14.338;2023-04-15T14:21:15;3;3;
77892;PMS5003;67087;50.094;14.338;2023-04-15T14:23:41;2;2;
77892;PMS5003;67087;50.094;14.338;2023-04-15T14:26:06;3;3;
77892;PMS5003;67087;50.094;14.338;2023-04-15T14:28:31;3;2;
77892;PMS5003;67087;50.094;14.338;2023-04-15T14:30:56;3;3;
77892;PMS5003;67087;50.094;14.338;2023-04-15T14:33:21;3;2;
77892;PMS5003;67087;50.094;14.338;2023-04-15T14:35:46;3;2;
77892;PMS5003;67087;50.094;14.338;2023-04-15T14:38:11;1;1;
77892;PMS5003;67087;50.094;14.338;2023-04-15T14:40:36;3;3;
77892;PMS5003;67087;50.094;14.338;2023-04-15T14:43:01;3;3;
77892;PMS5003;67087;50.094;14.338;2023-04-15T14:45:27;4;3;
77892;PMS5003;67087;50.094;14.338;2023-04-15T14:47:52;4;2;
77892;PMS5003;67087;50.094;14.338;2023-04-15T14:50:17;3;3;
77892;PMS5003;67087;50.094;14.338;2023-04-15T14:52:42;4;3;
77892;PMS5003;67087;50.094;14.338;2023-04-15T14:55:08;6;4;
77892;PMS5003;67087;50.094;14.338;2023-04-15T14:57:32;5;5;
77892;PMS5003;67087;50.094;14.338;2023-04-15T14:59:58;7;7;
77892;PMS5003;67087;50.094;14.338;2023-04-15T15:02:23;6;6;
77892;PMS5003;67087;50.094;14.338;2023-04-15T15:04:48;7;7;
77892;PMS5003;67087;50.094;14.338;2023-04-15T15:07:13;6;6;
77892;PMS5003;67087;50.094;14.338;2023-04-15T15:09:39;6;6;
77892;PMS5003;67087;50.094;14.338;2023-04-15T15:12:04;6;6;
77892;PMS5003;67087;50.094;14.338;2023-04-15T15:14:29;6;6;
77892;PMS5003;67087;50.094;14.338;2023-04-15T15:16:54;5;5;
77892;PMS5003;67087;50.094;14.338;2023-04-15T15:19:19;5;5;
77892;PMS5003;67087;50.094;14.338;2023-04-15T15:21:44;5;5;
77892;PMS5003;67087;50.094;14.338;2023-04-15T15:24:09;4;4;
77892;PMS5003;67087;50.094;14.338;2023-04-15T15:26:34;6;5;
77892;PMS5003;67087;50.094;14.338;2023-04-15T15:28:59;6;6;
77892;PMS5003;67087;50.094;14.338;2023-04-15T15:31:25;6;6;
77892;PMS5003;67087;50.094;14.338;2023-04-15T15:33:50;5;5;
77892;PMS5003;67087;50.094;14.338;2023-04-15T15:36:15;5;5;
77892;PMS5003;67087;50.094;14.338;2023-04-15T15:38:40;7;7;
77892;PMS5003;67087;50.094;14.338;2023-04-15T15:41:05;10;9;
77892;PMS5003;67087;50.094;14.338;2023-04-15T15:43:30;13;12;
77892;PMS5003;67087;50.094;14.338;2023-04-15T15:45:55;7;7;
77892;PMS5003;67087;50.094;14.338;2023-04-15T15:48:21;10;10;
77892;PMS5003;67087;50.094;14.338;2023-04-15T15:50:45;10;9;
77892;PMS5003;67087;50.094;14.338;2023-04-15T15:53:11;8;8;
77892;PMS5003;67087;50.094;14.338;2023-04-15T15:55:36;8;7;
77892;PMS5003;67087;50.094;14.338;2023-04-15T15:58:01;8;8;
77892;PMS5003;67087;50.094;14.338;2023-04-15T16:00:26;9;9;
77892;PMS5003;67087;50.094;14.338;2023-04-15T16:02:52;8;8;
77892;PMS5003;67087;50.094;14.338;2023-04-15T16:05:16;7;6;
77892;PMS5003;67087;50.094;14.338;2023-04-15T16:07:41;9;9;
77892;PMS5003;67087;50.094;14.338;2023-04-15T16:10:07;7;7;
77892;PMS5003;67087;50.094;14.338;2023-04-15T16:12:32;8;8;
77892;PMS5003;67087;50.094;14.338;2023-04-15T16:14:57;8;7;
77892;PMS5003;67087;50.094;14.338;2023-04-15T16:17:22;7;6;
77892;PMS5003;67087;50.094;14.338;2023-04-15T16:19:47;8;8;
77892;PMS5003;67087;50.094;14.338;2023-04-15T16:22:12;6;6;
77892;PMS5003;67087;50.094;14.338;2023-04-15T16:24:37;5;5;
77892;PMS5003;67087;50.094;14.338;2023-04-15T16:27:02;6;5;
77892;PMS5003;67087;50.094;14.338;2023-04-15T16:29:27;6;6;